sensor_id;sensor_type;location;lat;lon;timestamp;P1;durP1;ratioP1;P2;durP2;ratioP2
48789;SDS011;41718;51.980;5.734;2022-10-23T00:02:19;14.45;;;5.80;;
48789;SDS011;41718;51.980;5.734;2022-10-23T00:07:21;14.07;;;5.30;;
48789;SDS011;41718;51.980;5.734;2022-10-23T00:12:22;16.92;;;6.40;;
48789;SDS011;41718;51.980;5.734;2022-10-23T00:17:24;26.45;;;6.20;;
48789;SDS011;41718;51.980;5.734;2022-10-23T00:22:26;10.68;;;5.78;;
48789;SDS011;41718;51.980;5.734;2022-10-23T00:27:27;13.23;;;5.20;;
48789;SDS011;41718;51.980;5.734;2022-10-23T00:32:29;14.73;;;5.38;;
48789;SDS011;41718;51.980;5.734;2022-10-23T00:37:30;13.43;;;5.85;;
48789;SDS011;41718;51.980;5.734;2022-10-23T00:42:32;10.52;;;5.43;;
48789;SDS011;41718;51.980;5.734;2022-10-23T00:47:35;9.43;;;4.80;;
48789;SDS011;41718;51.980;5.734;2022-10-23T00:52:38;9.60;;;4.25;;
48789;SDS011;41718;51.980;5.734;2022-10-23T00:57:45;14.57;;;7.18;;
48789;SDS011;41718;51.980;5.734;2022-10-23T01:02:48;9.73;;;5.03;;
48789;SDS011;41718;51.980;5.734;2022-10-23T01:13:07;13.43;;;5.65;;
48789;SDS011;41718;51.980;5.734;2022-10-23T01:18:20;13.80;;;5.05;;
48789;SDS011;41718;51.980;5.734;2022-10-23T01:28:52;11.27;;;5.20;;
48789;SDS011;41718;51.980;5.734;2022-10-23T01:34:03;10.68;;;5.07;;
48789;SDS011;41718;51.980;5.734;2022-10-23T01:39:17;14.20;;;5.25;;
48789;SDS011;41718;51.980;5.734;2022-10-23T01:49:29;20.80;;;6.80;;
48789;SDS011;41718;51.980;5.734;2022-10-23T01:54:33;16.85;;;5.22;;
48789;SDS011;41718;51.980;5.734;2022-10-23T01:59:41;14.40;;;5.35;;
48789;SDS011;41718;51.980;5.734;2022-10-23T02:09:54;11.50;;;5.75;;
48789;SDS011;41718;51.980;5.734;2022-10-23T02:14:57;11.55;;;5.78;;
48789;SDS011;41718;51.980;5.734;2022-10-23T02:25:32;4.97;;;4.40;;
48789;SDS011;41718;51.980;5.734;2022-10-23T02:30:39;10.40;;;4.00;;
48789;SDS011;41718;51.980;5.734;2022-10-23T02:35:45;9.93;;;3.83;;
48789;SDS011;41718;51.980;5.734;2022-10-23T02:40:48;10.80;;;4.35;;
48789;SDS011;41718;51.980;5.734;2022-10-23T02:45:58;7.50;;;3.85;;
48789;SDS011;41718;51.980;5.734;2022-10-23T02:51:20;8.50;;;3.63;;
48789;SDS011;41718;51.980;5.734;2022-10-23T03:01:34;9.70;;;7.28;;
48789;SDS011;41718;51.980;5.734;2022-10-23T03:06:42;11.52;;;7.60;;
48789;SDS011;41718;51.980;5.734;2022-10-23T03:11:44;11.43;;;7.50;;
48789;SDS011;41718;51.980;5.734;2022-10-23T03:16:46;13.73;;;9.15;;
48789;SDS011;41718;51.980;5.734;2022-10-23T03:21:47;15.02;;;8.50;;
48789;SDS011;41718;51.980;5.734;2022-10-23T03:26:48;16.02;;;8.38;;
48789;SDS011;41718;51.980;5.734;2022-10-23T03:31:50;15.10;;;9.27;;
48789;SDS011;41718;51.980;5.734;2022-10-23T03:36:51;19.23;;;7.10;;
48789;SDS011;41718;51.980;5.734;2022-10-23T03:41:53;15.48;;;6.68;;
48789;SDS011;41718;51.980;5.734;2022-10-23T03:46:55;14.32;;;8.50;;
48789;SDS011;41718;51.980;5.734;2022-10-23T03:51:56;9.68;;;5.22;;
48789;SDS011;41718;51.980;5.734;2022-10-23T03:56:58;13.07;;;5.20;;
48789;SDS011;41718;51.980;5.734;2022-10-23T04:02:00;9.05;;;5.35;;
48789;SDS011;41718;51.980;5.734;2022-10-23T04:07:02;8.23;;;5.85;;
48789;SDS011;41718;51.980;5.734;2022-10-23T04:12:06;19.90;;;7.18;;
48789;SDS011;41718;51.980;5.734;2022-10-23T04:17:08;7.80;;;4.72;;
48789;SDS011;41718;51.980;5.734;2022-10-23T04:22:12;14.73;;;6.40;;
48789;SDS011;41718;51.980;5.734;2022-10-23T04:27:14;13.57;;;5.03;;
48789;SDS011;41718;51.980;5.734;2022-10-23T04:32:15;8.82;;;4.75;;
48789;SDS011;41718;51.980;5.734;2022-10-23T04:37:17;10.18;;;4.78;;
48789;SDS011;41718;51.980;5.734;2022-10-23T04:42:18;7.47;;;4.38;;
48789;SDS011;41718;51.980;5.734;2022-10-23T04:47:22;12.85;;;5.32;;
48789;SDS011;41718;51.980;5.734;2022-10-23T04:52:25;6.47;;;4.32;;
48789;SDS011;41718;51.980;5.734;2022-10-23T04:57:26;12.60;;;6.95;;
48789;SDS011;41718;51.980;5.734;2022-10-23T05:02:31;14.38;;;8.07;;
48789;SDS011;41718;51.980;5.734;2022-10-23T05:07:33;16.67;;;8.57;;
48789;SDS011;41718;51.980;5.734;2022-10-23T05:12:35;20.85;;;10.15;;
48789;SDS011;41718;51.980;5.734;2022-10-23T05:17:38;18.95;;;10.25;;
48789;SDS011;41718;51.980;5.734;2022-10-23T05:22:43;22.50;;;10.53;;
48789;SDS011;41718;51.980;5.734;2022-10-23T05:27:46;25.23;;;10.45;;
48789;SDS011;41718;51.980;5.734;2022-10-23T05:32:49;27.77;;;11.90;;
48789;SDS011;41718;51.980;5.734;2022-10-23T05:37:51;25.55;;;12.85;;
48789;SDS011;41718;51.980;5.734;2022-10-23T05:42:55;24.73;;;12.18;;
48789;SDS011;41718;51.980;5.734;2022-10-23T05:47:57;29.23;;;12.48;;
48789;SDS011;41718;51.980;5.734;2022-10-23T05:53:18;22.80;;;13.63;;
48789;SDS011;41718;51.980;5.734;2022-10-23T05:58:19;28.52;;;14.48;;
48789;SDS011;41718;51.980;5.734;2022-10-23T06:03:23;28.27;;;14.98;;
48789;SDS011;41718;51.980;5.734;2022-10-23T06:08:25;29.48;;;17.02;;
48789;SDS011;41718;51.980;5.734;2022-10-23T06:13:26;32.17;;;16.77;;
48789;SDS011;41718;51.980;5.734;2022-10-23T06:18:27;28.02;;;15.40;;
48789;SDS011;41718;51.980;5.734;2022-10-23T06:23:30;28.35;;;13.93;;
48789;SDS011;41718;51.980;5.734;2022-10-23T06:28:33;21.20;;;12.70;;
48789;SDS011;41718;51.980;5.734;2022-10-23T06:33:35;22.65;;;12.20;;
48789;SDS011;41718;51.980;5.734;2022-10-23T06:38:37;18.95;;;10.77;;
48789;SDS011;41718;51.980;5.734;2022-10-23T06:43:41;24.83;;;12.63;;
48789;SDS011;41718;51.980;5.734;2022-10-23T06:48:43;32.78;;;13.35;;
48789;SDS011;41718;51.980;5.734;2022-10-23T06:53:45;24.88;;;13.70;;
48789;SDS011;41718;51.980;5.734;2022-10-23T06:58:46;27.52;;;12.48;;
48789;SDS011;41718;51.980;5.734;2022-10-23T07:03:48;21.15;;;12.00;;
48789;SDS011;41718;51.980;5.734;2022-10-23T07:08:52;23.08;;;13.27;;
48789;SDS011;41718;51.980;5.734;2022-10-23T07:13:53;26.52;;;11.98;;
48789;SDS011;41718;51.980;5.734;2022-10-23T07:18:56;28.95;;;12.20;;
48789;SDS011;41718;51.980;5.734;2022-10-23T07:24:00;22.05;;;12.70;;
48789;SDS011;41718;51.980;5.734;2022-10-23T07:29:02;23.90;;;12.50;;
48789;SDS011;41718;51.980;5.734;2022-10-23T07:34:04;25.88;;;11.27;;
48789;SDS011;41718;51.980;5.734;2022-10-23T07:39:06;23.05;;;12.02;;
48789;SDS011;41718;51.980;5.734;2022-10-23T07:44:08;19.73;;;11.95;;
48789;SDS011;41718;51.980;5.734;2022-10-23T07:49:09;25.42;;;12.65;;
48789;SDS011;41718;51.980;5.734;2022-10-23T07:54:11;22.38;;;10.75;;
48789;SDS011;41718;51.980;5.734;2022-10-23T07:59:13;21.85;;;11.15;;
48789;SDS011;41718;51.980;5.734;2022-10-23T08:04:15;17.55;;;11.75;;
48789;SDS011;41718;51.980;5.734;2022-10-23T08:09:16;19.70;;;10.05;;
48789;SDS011;41718;51.980;5.734;2022-10-23T08:14:18;18.65;;;9.30;;
48789;SDS011;41718;51.980;5.734;2022-10-23T08:19:19;15.85;;;9.25;;
48789;SDS011;41718;51.980;5.734;2022-10-23T08:24:21;20.00;;;9.90;;
48789;SDS011;41718;51.980;5.734;2022-10-23T08:29:23;21.08;;;8.95;;
48789;SDS011;41718;51.980;5.734;2022-10-23T08:34:24;16.75;;;9.30;;
48789;SDS011;41718;51.980;5.734;2022-10-23T08:39:27;12.02;;;7.95;;
48789;SDS011;41718;51.980;5.734;2022-10-23T09:00:20;12.00;;;7.50;;
48789;SDS011;41718;51.980;5.734;2022-10-23T09:05:34;9.82;;;7.10;;
48789;SDS011;41718;51.980;5.734;2022-10-23T09:16:35;14.95;;;5.93;;
48789;SDS011;41718;51.980;5.734;2022-10-23T09:21:40;10.80;;;5.82;;
48789;SDS011;41718;51.980;5.734;2022-10-23T09:26:43;14.88;;;6.30;;
48789;SDS011;41718;51.980;5.734;2022-10-23T09:31:51;12.55;;;5.97;;
48789;SDS011;41718;51.980;5.734;2022-10-23T09:36:58;10.38;;;5.47;;
48789;SDS011;41718;51.980;5.734;2022-10-23T09:42:19;11.18;;;5.85;;
48789;SDS011;41718;51.980;5.734;2022-10-23T09:47:23;8.85;;;4.85;;
48789;SDS011;41718;51.980;5.734;2022-10-23T09:52:31;7.22;;;4.90;;
48789;SDS011;41718;51.980;5.734;2022-10-23T09:57:38;10.00;;;5.43;;
48789;SDS011;41718;51.980;5.734;2022-10-23T10:02:43;6.50;;;5.28;;
48789;SDS011;41718;51.980;5.734;2022-10-23T10:08:00;13.70;;;4.35;;
48789;SDS011;41718;51.980;5.734;2022-10-23T10:18:46;15.45;;;5.25;;
48789;SDS011;41718;51.980;5.734;2022-10-23T10:34:37;10.55;;;5.70;;
48789;SDS011;41718;51.980;5.734;2022-10-23T10:50:53;13.65;;;4.68;;
48789;SDS011;41718;51.980;5.734;2022-10-23T10:55:57;8.15;;;3.97;;
48789;SDS011;41718;51.980;5.734;2022-10-23T11:01:02;8.60;;;4.30;;
48789;SDS011;41718;51.980;5.734;2022-10-23T11:06:40;7.35;;;3.63;;
48789;SDS011;41718;51.980;5.734;2022-10-23T11:11:46;4.60;;;3.88;;
48789;SDS011;41718;51.980;5.734;2022-10-23T11:16:53;13.20;;;4.25;;
48789;SDS011;41718;51.980;5.734;2022-10-23T11:22:10;4.93;;;3.80;;
48789;SDS011;41718;51.980;5.734;2022-10-23T11:27:36;8.13;;;3.63;;
48789;SDS011;41718;51.980;5.734;2022-10-23T11:38:43;7.95;;;3.58;;
48789;SDS011;41718;51.980;5.734;2022-10-23T11:43:49;4.45;;;2.92;;
48789;SDS011;41718;51.980;5.734;2022-10-23T11:48:59;8.15;;;3.70;;
48789;SDS011;41718;51.980;5.734;2022-10-23T11:54:04;8.55;;;3.65;;
48789;SDS011;41718;51.980;5.734;2022-10-23T11:59:30;10.75;;;3.75;;
48789;SDS011;41718;51.980;5.734;2022-10-23T12:04:39;5.97;;;3.60;;
48789;SDS011;41718;51.980;5.734;2022-10-23T12:10:01;6.18;;;3.70;;
48789;SDS011;41718;51.980;5.734;2022-10-23T12:20:17;9.68;;;3.45;;
48789;SDS011;41718;51.980;5.734;2022-10-23T12:36:20;5.28;;;2.00;;
48789;SDS011;41718;51.980;5.734;2022-10-23T12:41:35;8.75;;;3.55;;
48789;SDS011;41718;51.980;5.734;2022-10-23T12:46:39;9.75;;;2.95;;
48789;SDS011;41718;51.980;5.734;2022-10-23T12:51:42;4.72;;;2.60;;
48789;SDS011;41718;51.980;5.734;2022-10-23T12:56:44;9.95;;;2.90;;
48789;SDS011;41718;51.980;5.734;2022-10-23T13:01:46;3.88;;;2.55;;
48789;SDS011;41718;51.980;5.734;2022-10-23T13:06:57;6.53;;;2.38;;
48789;SDS011;41718;51.980;5.734;2022-10-23T13:12:01;2.53;;;2.22;;
48789;SDS011;41718;51.980;5.734;2022-10-23T13:17:06;7.60;;;2.35;;
48789;SDS011;41718;51.980;5.734;2022-10-23T13:22:14;5.35;;;1.70;;
48789;SDS011;41718;51.980;5.734;2022-10-23T13:27:23;2.08;;;1.60;;
48789;SDS011;41718;51.980;5.734;2022-10-23T13:32:34;3.50;;;2.60;;
48789;SDS011;41718;51.980;5.734;2022-10-23T13:37:38;3.30;;;2.33;;
48789;SDS011;41718;51.980;5.734;2022-10-23T13:42:39;6.47;;;3.05;;
48789;SDS011;41718;51.980;5.734;2022-10-23T13:47:42;4.43;;;2.83;;
48789;SDS011;41718;51.980;5.734;2022-10-23T13:52:44;9.10;;;5.38;;
48789;SDS011;41718;51.980;5.734;2022-10-23T13:57:46;5.28;;;4.18;;
48789;SDS011;41718;51.980;5.734;2022-10-23T14:02:48;2.45;;;2.13;;
48789;SDS011;41718;51.980;5.734;2022-10-23T14:07:55;4.88;;;3.03;;
48789;SDS011;41718;51.980;5.734;2022-10-23T14:13:03;4.40;;;2.70;;
48789;SDS011;41718;51.980;5.734;2022-10-23T14:18:05;4.97;;;2.83;;
48789;SDS011;41718;51.980;5.734;2022-10-23T14:23:09;3.72;;;2.42;;
48789;SDS011;41718;51.980;5.734;2022-10-23T14:28:15;8.48;;;2.95;;
48789;SDS011;41718;51.980;5.734;2022-10-23T14:33:18;7.18;;;2.20;;
48789;SDS011;41718;51.980;5.734;2022-10-23T14:38:20;10.00;;;5.22;;
48789;SDS011;41718;51.980;5.734;2022-10-23T14:43:22;7.15;;;2.47;;
48789;SDS011;41718;51.980;5.734;2022-10-23T14:48:39;4.57;;;2.03;;
48789;SDS011;41718;51.980;5.734;2022-10-23T14:53:55;4.43;;;2.60;;
48789;SDS011;41718;51.980;5.734;2022-10-23T14:58:59;10.05;;;2.78;;
48789;SDS011;41718;51.980;5.734;2022-10-23T15:04:10;2.55;;;1.98;;
48789;SDS011;41718;51.980;5.734;2022-10-23T15:09:15;7.53;;;2.33;;
48789;SDS011;41718;51.980;5.734;2022-10-23T15:14:17;4.47;;;3.10;;
48789;SDS011;41718;51.980;5.734;2022-10-23T15:19:21;9.38;;;2.28;;
48789;SDS011;41718;51.980;5.734;2022-10-23T15:24:26;7.05;;;2.53;;
48789;SDS011;41718;51.980;5.734;2022-10-23T15:29:29;7.70;;;3.53;;
48789;SDS011;41718;51.980;5.734;2022-10-23T15:34:31;7.25;;;3.80;;
48789;SDS011;41718;51.980;5.734;2022-10-23T15:39:32;9.30;;;3.50;;
48789;SDS011;41718;51.980;5.734;2022-10-23T15:44:37;6.75;;;2.95;;
48789;SDS011;41718;51.980;5.734;2022-10-23T15:49:40;8.90;;;4.63;;
48789;SDS011;41718;51.980;5.734;2022-10-23T15:54:42;10.70;;;5.38;;
48789;SDS011;41718;51.980;5.734;2022-10-23T15:59:45;7.80;;;5.07;;
48789;SDS011;41718;51.980;5.734;2022-10-23T16:04:47;6.15;;;3.30;;
48789;SDS011;41718;51.980;5.734;2022-10-23T16:09:49;6.85;;;3.75;;
48789;SDS011;41718;51.980;5.734;2022-10-23T16:14:51;7.65;;;2.90;;
48789;SDS011;41718;51.980;5.734;2022-10-23T16:19:53;17.63;;;6.60;;
48789;SDS011;41718;51.980;5.734;2022-10-23T16:24:55;5.35;;;4.30;;
48789;SDS011;41718;51.980;5.734;2022-10-23T16:29:57;5.75;;;3.53;;
48789;SDS011;41718;51.980;5.734;2022-10-23T16:34:59;8.20;;;3.03;;
48789;SDS011;41718;51.980;5.734;2022-10-23T16:40:00;11.38;;;5.10;;
48789;SDS011;41718;51.980;5.734;2022-10-23T16:45:02;10.93;;;5.70;;
48789;SDS011;41718;51.980;5.734;2022-10-23T16:50:04;10.68;;;4.10;;
48789;SDS011;41718;51.980;5.734;2022-10-23T16:55:06;5.65;;;3.80;;
48789;SDS011;41718;51.980;5.734;2022-10-23T17:00:14;4.32;;;3.10;;
48789;SDS011;41718;51.980;5.734;2022-10-23T17:05:17;7.32;;;3.05;;
48789;SDS011;41718;51.980;5.734;2022-10-23T17:10:18;9.68;;;3.15;;
48789;SDS011;41718;51.980;5.734;2022-10-23T17:15:20;3.53;;;2.80;;
48789;SDS011;41718;51.980;5.734;2022-10-23T17:20:24;7.63;;;3.08;;
48789;SDS011;41718;51.980;5.734;2022-10-23T17:25:25;7.03;;;4.65;;
48789;SDS011;41718;51.980;5.734;2022-10-23T17:30:36;9.70;;;3.85;;
48789;SDS011;41718;51.980;5.734;2022-10-23T17:35:38;5.82;;;3.05;;
48789;SDS011;41718;51.980;5.734;2022-10-23T17:40:40;5.28;;;3.85;;
48789;SDS011;41718;51.980;5.734;2022-10-23T17:45:59;5.35;;;3.17;;
48789;SDS011;41718;51.980;5.734;2022-10-23T17:51:03;17.75;;;9.38;;
48789;SDS011;41718;51.980;5.734;2022-10-23T17:56:06;11.82;;;5.68;;
48789;SDS011;41718;51.980;5.734;2022-10-23T18:01:11;8.45;;;3.58;;
48789;SDS011;41718;51.980;5.734;2022-10-23T18:06:16;7.00;;;6.00;;
48789;SDS011;41718;51.980;5.734;2022-10-23T18:11:24;5.65;;;4.10;;
48789;SDS011;41718;51.980;5.734;2022-10-23T18:16:31;6.60;;;3.13;;
48789;SDS011;41718;51.980;5.734;2022-10-23T18:21:33;8.20;;;3.63;;
48789;SDS011;41718;51.980;5.734;2022-10-23T18:26:36;9.90;;;4.05;;
48789;SDS011;41718;51.980;5.734;2022-10-23T18:31:39;4.60;;;3.50;;
48789;SDS011;41718;51.980;5.734;2022-10-23T18:36:42;7.70;;;5.05;;
48789;SDS011;41718;51.980;5.734;2022-10-23T18:41:44;6.72;;;3.58;;
48789;SDS011;41718;51.980;5.734;2022-10-23T18:46:49;5.10;;;3.25;;
48789;SDS011;41718;51.980;5.734;2022-10-23T18:51:51;6.05;;;3.97;;
48789;SDS011;41718;51.980;5.734;2022-10-23T18:56:52;4.95;;;2.88;;
48789;SDS011;41718;51.980;5.734;2022-10-23T19:01:54;9.55;;;3.25;;
48789;SDS011;41718;51.980;5.734;2022-10-23T19:06:56;4.15;;;3.15;;
48789;SDS011;41718;51.980;5.734;2022-10-23T19:11:58;5.30;;;2.88;;
48789;SDS011;41718;51.980;5.734;2022-10-23T19:17:08;17.17;;;3.65;;
48789;SDS011;41718;51.980;5.734;2022-10-23T19:22:14;13.73;;;4.88;;
48789;SDS011;41718;51.980;5.734;2022-10-23T19:27:18;4.28;;;2.65;;
48789;SDS011;41718;51.980;5.734;2022-10-23T19:32:20;4.55;;;3.08;;
48789;SDS011;41718;51.980;5.734;2022-10-23T19:37:25;7.63;;;3.05;;
48789;SDS011;41718;51.980;5.734;2022-10-23T19:42:27;3.80;;;2.45;;
48789;SDS011;41718;51.980;5.734;2022-10-23T19:47:28;6.10;;;2.90;;
48789;SDS011;41718;51.980;5.734;2022-10-23T19:52:30;3.67;;;3.08;;
48789;SDS011;41718;51.980;5.734;2022-10-23T19:57:32;8.68;;;3.38;;
48789;SDS011;41718;51.980;5.734;2022-10-23T20:02:37;7.20;;;3.77;;
48789;SDS011;41718;51.980;5.734;2022-10-23T20:07:38;5.03;;;2.53;;
48789;SDS011;41718;51.980;5.734;2022-10-23T20:12:40;6.78;;;1.90;;
48789;SDS011;41718;51.980;5.734;2022-10-23T20:17:57;3.97;;;1.90;;
48789;SDS011;41718;51.980;5.734;2022-10-23T20:22:59;2.63;;;1.77;;
48789;SDS011;41718;51.980;5.734;2022-10-23T20:28:01;6.45;;;2.15;;
48789;SDS011;41718;51.980;5.734;2022-10-23T20:33:03;3.17;;;2.38;;
48789;SDS011;41718;51.980;5.734;2022-10-23T20:38:05;3.45;;;1.40;;
48789;SDS011;41718;51.980;5.734;2022-10-23T20:43:07;8.02;;;1.70;;
48789;SDS011;41718;51.980;5.734;2022-10-23T20:48:09;6.30;;;2.35;;
48789;SDS011;41718;51.980;5.734;2022-10-23T20:53:13;8.75;;;1.55;;
48789;SDS011;41718;51.980;5.734;2022-10-23T20:58:16;5.05;;;1.27;;
48789;SDS011;41718;51.980;5.734;2022-10-23T21:03:18;1.33;;;1.20;;
48789;SDS011;41718;51.980;5.734;2022-10-23T21:08:19;5.10;;;1.20;;
48789;SDS011;41718;51.980;5.734;2022-10-23T21:13:21;4.53;;;1.17;;
48789;SDS011;41718;51.980;5.734;2022-10-23T21:18:25;5.35;;;1.48;;
48789;SDS011;41718;51.980;5.734;2022-10-23T21:23:46;1.85;;;1.10;;
48789;SDS011;41718;51.980;5.734;2022-10-23T21:28:49;3.10;;;1.70;;
48789;SDS011;41718;51.980;5.734;2022-10-23T21:34:06;6.20;;;1.67;;
48789;SDS011;41718;51.980;5.734;2022-10-23T21:39:08;6.47;;;1.73;;
48789;SDS011;41718;51.980;5.734;2022-10-23T21:44:11;4.68;;;1.33;;
48789;SDS011;41718;51.980;5.734;2022-10-23T21:49:13;3.88;;;1.90;;
48789;SDS011;41718;51.980;5.734;2022-10-23T21:54:15;2.80;;;1.30;;
48789;SDS011;41718;51.980;5.734;2022-10-23T21:59:19;4.40;;;1.98;;
48789;SDS011;41718;51.980;5.734;2022-10-23T22:04:23;3.45;;;1.60;;
48789;SDS011;41718;51.980;5.734;2022-10-23T22:09:24;10.23;;;3.10;;
48789;SDS011;41718;51.980;5.734;2022-10-23T22:14:26;2.75;;;1.60;;
48789;SDS011;41718;51.980;5.734;2022-10-23T22:19:27;6.35;;;2.28;;
48789;SDS011;41718;51.980;5.734;2022-10-23T22:24:29;3.10;;;1.77;;
48789;SDS011;41718;51.980;5.734;2022-10-23T22:29:30;6.25;;;2.83;;
48789;SDS011;41718;51.980;5.734;2022-10-23T22:34:32;4.97;;;1.65;;
48789;SDS011;41718;51.980;5.734;2022-10-23T22:39:52;3.63;;;1.52;;
48789;SDS011;41718;51.980;5.734;2022-10-23T22:44:54;8.88;;;3.13;;
48789;SDS011;41718;51.980;5.734;2022-10-23T22:49:55;9.40;;;2.88;;
48789;SDS011;41718;51.980;5.734;2022-10-23T22:54:58;7.28;;;3.10;;
48789;SDS011;41718;51.980;5.734;2022-10-23T23:00:03;5.57;;;2.60;;
48789;SDS011;41718;51.980;5.734;2022-10-23T23:05:09;6.30;;;3.45;;
48789;SDS011;41718;51.980;5.734;2022-10-23T23:10:11;6.55;;;3.65;;
48789;SDS011;41718;51.980;5.734;2022-10-23T23:15:13;8.55;;;3.22;;
48789;SDS011;41718;51.980;5.734;2022-10-23T23:20:18;7.18;;;3.63;;
48789;SDS011;41718;51.980;5.734;2022-10-23T23:25:19;6.10;;;3.80;;
48789;SDS011;41718;51.980;5.734;2022-10-23T23:30:21;5.03;;;3.22;;
48789;SDS011;41718;51.980;5.734;2022-10-23T23:35:23;9.55;;;3.25;;
48789;SDS011;41718;51.980;5.734;2022-10-23T23:40:25;6.32;;;3.10;;
48789;SDS011;41718;51.980;5.734;2022-10-23T23:45:26;5.75;;;2.92;;
48789;SDS011;41718;51.980;5.734;2022-10-23T23:50:28;6.32;;;3.55;;
48789;SDS011;41718;51.980;5.734;2022-10-23T23:55:29;11.50;;;5.63;;
